Kilmarnock, United Kingdom
Current Conditions -  °F | °C
As of 9:50 PM on Saturday 25 Oct 2014 (Local Time) from EGPK Reporting Station
Rain Showers Rain Showers  
Wind Chill: 54°   Ceiling: 4500
Heat Index: 54°   Visibility: 5mi
Dew Point: 46°   Wind: 17mph
Humidity: 77%   Direction: 200°SSW
Pressure: 29.77"   Gusts: NA
Location:  55.61°N, 4.5°W
Report Text: EGPK 252050Z 20015KT 8000 -SHRA FEW016 SCT034 BKN045 12/08 Q1008
Loading
Personal Weather Stations






























Interactive Weather Map
Tropical Storm Tracking
New forecast layout! Learn more

10-Day Weather Forecast

Advertisements
Track Severe Weather on mobile